Time;durP1;ratioP1;P1;durP2;ratioP2;P2;SDS_P1;SDS_P2;PMS_P1;PMS_P2;Temp;Humidity;BMP_temperature;BMP_pressure;BME280_temperature;BME280_humidity;BME280_pressure;Samples;Min_cycle;Max_cycle;Signal;HPM_P1;HPM_P2
2022/06/02 00:01:18;;;;;;;8.63;7.03;;;19.90;99.90;;;;;;5065462;28;20201;-68
2022/06/02 00:03:53;;;;;;;9.13;6.50;;;19.90;99.90;;;;;;5090678;28;20274;-70
2022/06/02 00:06:36;;;;;;;6.28;5.72;;;19.90;99.90;;;;;;5090051;28;20213;-70
2022/06/02 00:09:10;;;;;;;8.48;6.28;;;20.00;99.90;;;;;;5090206;28;20205;-69
2022/06/02 00:11:54;;;;;;;7.13;5.15;;;20.00;99.90;;;;;;5089884;28;20295;-70
2022/06/02 00:14:26;;;;;;;16.02;6.85;;;20.10;99.90;;;;;;5089801;28;20219;-68
2022/06/02 00:17:00;;;;;;;9.73;6.28;;;20.00;99.90;;;;;;5090293;28;20274;-70
2022/06/02 00:19:39;;;;;;;6.97;5.68;;;20.00;99.90;;;;;;5089713;28;20615;-70
2022/06/02 00:22:14;;;;;;;6.47;5.72;;;19.90;99.90;;;;;;5090342;28;20241;-72
2022/06/02 00:24:45;;;;;;;8.35;7.07;;;19.90;99.90;;;;;;5089797;28;20236;-69
2022/06/02 00:27:26;;;;;;;7.65;6.95;;;19.90;99.90;;;;;;5090599;28;20205;-69
2022/06/02 00:30:06;;;;;;;7.78;7.07;;;20.00;99.90;;;;;;5090338;28;20286;-68
2022/06/02 00:32:44;;;;;;;8.77;6.25;;;20.00;99.90;;;;;;5089802;28;20630;-71
2022/06/02 00:35:23;;;;;;;6.38;5.78;;;19.90;99.90;;;;;;5092107;28;20553;-69
2022/06/02 00:37:56;;;;;;;10.40;6.72;;;19.80;99.90;;;;;;5093724;28;20792;-70
2022/06/02 00:40:24;;;;;;;10.88;6.28;;;19.70;99.90;;;;;;5093642;28;20263;-68
2022/06/02 00:43:00;;;;;;;9.60;6.82;;;19.60;99.90;;;;;;5094102;28;20210;-68
2022/06/02 00:45:27;;;;;;;12.25;5.95;;;19.50;99.90;;;;;;5079403;28;20259;-70
2022/06/02 00:48:07;;;;;;;8.40;6.97;;;19.50;99.90;;;;;;5093910;28;20201;-68
2022/06/02 00:50:44;;;;;;;13.80;6.90;;;19.50;99.90;;;;;;5093250;28;20288;-68
2022/06/02 00:53:18;;;;;;;7.15;5.60;;;19.60;99.90;;;;;;5071737;28;20287;-68
2022/06/02 00:58:59;;;;;;;9.55;6.72;;;19.60;99.90;;;;;;5085445;28;20323;-69
2022/06/02 01:01:28;;;;;;;10.77;6.40;;;19.70;99.90;;;;;;5080175;28;20210;-69
2022/06/02 01:03:57;;;;;;;9.38;6.47;;;19.70;99.90;;;;;;5093135;28;20255;-68
2022/06/02 01:06:48;;;;;;;8.88;6.15;;;19.60;99.90;;;;;;5093206;28;20201;-68
2022/06/02 01:09:37;;;;;;;9.65;6.75;;;19.70;99.90;;;;;;5086111;28;20259;-70
2022/06/02 01:12:15;;;;;;;7.13;5.45;;;19.60;99.90;;;;;;5089875;28;20263;-68
2022/06/02 01:14:59;;;;;;;10.85;7.15;;;19.60;99.90;;;;;;5093338;28;20232;-70
2022/06/02 01:17:36;;;;;;;8.48;6.47;;;19.50;99.90;;;;;;5092812;28;20278;-71
2022/06/02 01:20:13;;;;;;;14.65;7.78;;;19.60;99.90;;;;;;5093271;28;20205;-70
2022/06/02 01:23:16;;;;;;;9.02;6.18;;;19.60;99.90;;;;;;5092610;28;20270;-69
2022/06/02 01:26:07;;;;;;;7.32;5.88;;;19.60;99.90;;;;;;5090531;28;20282;-69
2022/06/02 01:28:47;;;;;;;12.73;6.05;;;19.70;99.90;;;;;;5083531;28;20258;-69
2022/06/02 01:31:25;;;;;;;7.55;5.57;;;19.80;99.90;;;;;;5093403;28;20201;-69
2022/06/02 01:34:02;;;;;;;9.30;6.47;;;19.90;99.90;;;;;;5093023;28;20209;-69
2022/06/02 01:36:38;;;;;;;7.32;6.63;;;19.70;99.90;;;;;;5092663;28;20205;-68
2022/06/02 01:39:19;;;;;;;8.48;6.72;;;19.70;99.90;;;;;;5092722;28;20201;-68
2022/06/02 01:41:57;;;;;;;8.73;6.43;;;19.70;99.90;;;;;;5093386;28;20266;-68
2022/06/02 01:44:33;;;;;;;7.28;5.93;;;19.70;99.90;;;;;;5092477;28;20669;-68
2022/06/02 01:47:05;;;;;;;11.88;6.75;;;19.60;99.90;;;;;;5092595;28;20209;-68
2022/06/02 01:49:53;;;;;;;10.10;6.18;;;19.70;99.90;;;;;;5092394;28;20205;-69
2022/06/02 01:52:45;;;;;;;6.55;5.30;;;19.70;99.90;;;;;;5092134;28;20213;-69
2022/06/02 01:55:38;;;;;;;9.45;6.72;;;19.80;99.90;;;;;;5065337;28;20212;-68
2022/06/02 01:58:20;;;;;;;6.40;5.90;;;19.70;99.90;;;;;;5092501;28;20291;-69
2022/06/02 02:00:55;;;;;;;12.95;6.28;;;19.80;99.90;;;;;;5082330;28;20261;-69
2022/06/02 02:03:30;;;;;;;8.13;5.60;;;19.90;99.90;;;;;;5089265;28;20205;-68
2022/06/02 02:06:08;;;;;;;7.82;5.85;;;19.80;99.90;;;;;;5092551;28;20204;-70
2022/06/02 02:09:09;;;;;;;7.25;5.80;;;19.80;99.90;;;;;;5091996;28;20209;-70
2022/06/02 02:11:48;;;;;;;8.77;6.53;;;19.70;99.90;;;;;;5091685;28;20204;-68
2022/06/02 02:14:49;;;;;;;8.38;5.35;;;19.60;99.90;;;;;;5092444;28;20718;-68
2022/06/02 02:17:40;;;;;;;8.43;5.97;;;19.60;99.90;;;;;;5092339;28;20232;-69
2022/06/02 02:20:18;;;;;;;6.85;6.22;;;19.60;99.90;;;;;;5091851;28;20652;-69
2022/06/02 02:22:53;;;;;;;10.65;7.00;;;19.70;99.90;;;;;;5092353;28;20209;-68
2022/06/02 02:25:27;;;;;;;8.25;6.85;;;19.70;99.90;;;;;;5091649;28;20205;-68
2022/06/02 02:28:03;;;;;;;9.35;6.07;;;19.70;99.90;;;;;;5091957;28;20205;-68
2022/06/02 02:30:37;;;;;;;7.78;7.07;;;19.70;99.90;;;;;;5091323;28;20209;-69
2022/06/02 02:33:15;;;;;;;13.02;7.47;;;19.70;99.90;;;;;;5092005;28;20209;-69
2022/06/02 02:35:51;;;;;;;8.10;7.30;;;19.60;99.90;;;;;;5091124;28;20750;-70
2022/06/02 02:38:29;;;;;;;12.73;7.82;;;19.70;99.90;;;;;;5091638;28;20233;-69
2022/06/02 02:41:00;;;;;;;7.43;6.57;;;19.80;99.90;;;;;;5091815;28;20201;-70
2022/06/02 02:43:32;;;;;;;8.70;7.55;;;19.80;99.90;;;;;;5091282;28;20628;-69
2022/06/02 02:46:07;;;;;;;7.22;6.25;;;20.00;99.90;;;;;;5091626;28;20208;-70
2022/06/02 02:48:43;;;;;;;8.52;7.07;;;20.00;99.90;;;;;;5091075;28;20254;-70
2022/06/02 02:51:17;;;;;;;11.35;7.72;;;19.90;99.90;;;;;;5091145;28;20617;-68
2022/06/02 02:53:48;;;;;;;8.38;7.53;;;19.90;99.90;;;;;;5091712;28;20658;-70
2022/06/02 02:56:21;;;;;;;8.95;7.25;;;19.90;99.90;;;;;;5091530;28;20249;-68
2022/06/02 02:58:54;;;;;;;10.00;7.40;;;19.80;99.90;;;;;;5090742;28;20236;-68
2022/06/02 03:01:28;;;;;;;9.68;7.10;;;19.90;99.90;;;;;;5076604;28;20703;-68
2022/06/02 03:04:08;;;;;;;13.18;7.70;;;19.80;99.90;;;;;;5091105;28;20212;-67
2022/06/02 03:06:39;;;;;;;11.68;8.50;;;19.70;99.90;;;;;;5090855;28;20259;-67
2022/06/02 03:09:11;;;;;;;11.15;7.95;;;19.70;99.90;;;;;;5091321;28;20274;-68
2022/06/02 03:12:09;;;;;;;13.82;8.10;;;19.60;99.90;;;;;;5090818;28;20212;-68
2022/06/02 03:14:48;;;;;;;10.13;7.90;;;19.30;99.90;;;;;;5090928;28;20209;-69
2022/06/02 03:17:29;;;;;;;11.88;7.50;;;19.30;99.90;;;;;;5091014;28;20638;-68
2022/06/02 03:20:01;;;;;;;9.80;7.65;;;19.20;99.90;;;;;;5090914;28;20209;-69
2022/06/02 03:22:45;;;;;;;9.10;7.95;;;19.20;99.90;;;;;;5090657;28;20665;-68
2022/06/02 03:25:18;;;;;;;11.48;7.90;;;19.30;99.90;;;;;;5091155;28;20210;-68
2022/06/02 03:27:51;;;;;;;10.93;7.95;;;19.30;99.90;;;;;;5091312;28;20263;-69
2022/06/02 03:30:22;;;;;;;13.43;7.90;;;19.40;99.90;;;;;;5090879;28;20206;-69
2022/06/02 03:33:10;;;;;;;9.63;7.00;;;19.50;99.90;;;;;;5090776;28;20209;-69
2022/06/02 03:35:46;;;;;;;7.78;7.03;;;19.50;99.90;;;;;;5090466;28;20297;-68
2022/06/02 03:38:33;;;;;;;11.52;7.35;;;19.50;99.90;;;;;;5091159;28;20232;-68
2022/06/02 03:41:35;;;;;;;9.77;7.05;;;19.50;99.90;;;;;;5090601;28;20205;-69
2022/06/02 03:44:14;;;;;;;8.50;7.45;;;19.40;99.90;;;;;;5065485;28;20583;-70
2022/06/02 03:46:53;;;;;;;8.48;7.68;;;19.40;99.90;;;;;;5090318;28;20258;-69
2022/06/02 03:49:56;;;;;;;8.60;7.05;;;19.40;99.90;;;;;;5089947;28;20743;-68
2022/06/02 03:52:43;;;;;;;9.05;7.70;;;19.40;99.90;;;;;;5074624;28;20216;-70
2022/06/02 03:55:25;;;;;;;12.55;8.10;;;19.50;99.90;;;;;;5090723;28;20209;-68
2022/06/02 03:58:12;;;;;;;11.82;7.07;;;19.40;99.90;;;;;;5090409;28;20686;-69
2022/06/02 04:00:48;;;;;;;8.18;7.15;;;19.40;99.90;;;;;;5080989;28;20661;-71
2022/06/02 04:03:32;;;;;;;11.10;7.50;;;19.30;99.90;;;;;;5086921;28;20625;-68
2022/06/02 04:06:13;;;;;;;7.40;6.72;;;19.40;99.90;;;;;;5090524;28;20209;-72
2022/06/02 04:09:00;;;;;;;9.27;6.25;;;19.50;99.90;;;;;;5091023;28;20206;-69
2022/06/02 04:14:51;;;;;;;13.45;6.75;;;19.30;99.90;;;;;;5079159;28;20217;-68
2022/06/02 04:17:26;;;;;;;9.90;6.60;;;19.30;99.90;;;;;;5066005;28;20196;-68
2022/06/02 04:23:18;;;;;;;11.40;7.07;;;19.30;99.90;;;;;;5075642;28;20595;-71
2022/06/02 04:25:55;;;;;;;7.85;7.07;;;19.30;99.90;;;;;;5094418;28;20201;-68
2022/06/02 04:28:34;;;;;;;11.27;7.35;;;19.30;99.90;;;;;;5093864;28;20275;-70
2022/06/02 04:31:12;;;;;;;17.10;8.93;;;19.30;99.90;;;;;;5067726;28;20305;-68
2022/06/02 04:33:47;;;;;;;8.40;6.55;;;19.40;99.90;;;;;;5093905;28;20213;-69
2022/06/02 04:36:21;;;;;;;12.43;7.18;;;19.30;99.90;;;;;;5094679;28;20201;-69
2022/06/02 04:38:55;;;;;;;8.63;6.05;;;19.40;99.90;;;;;;5094159;28;20236;-69
2022/06/02 04:41:42;;;;;;;8.70;7.15;;;19.50;99.90;;;;;;5093704;28;20213;-69
2022/06/02 04:44:20;;;;;;;7.90;6.80;;;19.50;99.90;;;;;;5093849;28;20213;-68
2022/06/02 04:46:59;;;;;;;13.40;7.60;;;19.60;99.90;;;;;;5093971;28;20209;-70
2022/06/02 04:49:38;;;;;;;8.13;6.68;;;19.50;99.90;;;;;;5093386;28;20217;-71
2022/06/02 04:52:14;;;;;;;14.43;7.50;;;19.60;99.90;;;;;;5093736;28;20304;-70
2022/06/02 04:54:48;;;;;;;16.00;8.77;;;19.70;99.90;;;;;;5093255;28;20573;-71
2022/06/02 04:57:27;;;;;;;8.70;6.55;;;19.80;99.90;;;;;;5094014;28;20243;-69
2022/06/02 05:00:03;;;;;;;11.13;7.25;;;19.80;99.90;;;;;;5090757;28;20209;-70
2022/06/02 05:02:41;;;;;;;9.27;7.40;;;19.80;99.90;;;;;;5083098;28;20209;-70
2022/06/02 05:05:16;;;;;;;14.25;6.80;;;19.80;99.90;;;;;;5093611;28;20209;-69
2022/06/02 05:08:15;;;;;;;11.65;8.77;;;19.80;99.90;;;;;;5093478;28;20588;-70
2022/06/02 05:10:47;;;;;;;14.05;9.18;;;19.80;99.90;;;;;;5068241;28;20274;-69
2022/06/02 05:13:23;;;;;;;12.07;7.68;;;19.80;99.90;;;;;;5093444;28;20630;-71
2022/06/02 05:16:21;;;;;;;9.07;7.28;;;19.60;99.90;;;;;;5093215;28;20627;-71
2022/06/02 05:19:34;;;;;;;8.23;6.75;;;19.70;99.90;;;;;;5093263;28;20225;-69
2022/06/02 05:22:30;;;;;;;7.95;7.15;;;19.80;99.90;;;;;;5050223;28;20215;-69
2022/06/02 05:25:22;;;;;;;8.88;6.50;;;19.80;99.90;;;;;;5050793;28;20210;-69
2022/06/02 05:28:20;;;;;;;10.90;7.15;;;19.70;99.90;;;;;;5066190;28;20352;-70
2022/06/02 05:30:59;;;;;;;11.57;7.50;;;19.70;99.90;;;;;;5092680;28;20201;-69
2022/06/02 05:34:06;;;;;;;9.48;7.53;;;19.70;99.90;;;;;;5092694;28;20274;-70
2022/06/02 05:36:52;;;;;;;12.25;7.97;;;19.80;99.90;;;;;;5031296;28;20211;-71
2022/06/02 05:39:57;;;;;;;8.85;7.82;;;19.70;99.90;;;;;;5077829;28;20226;-74
2022/06/02 05:42:33;;;;;;;11.57;7.03;;;19.90;99.90;;;;;;5070796;28;20271;-72
2022/06/02 05:45:28;;;;;;;11.10;7.70;;;19.90;99.90;;;;;;5088150;28;20252;-72
2022/06/02 05:48:09;;;;;;;9.48;6.60;;;19.80;99.90;;;;;;5079167;28;20289;-72
2022/06/02 05:50:44;;;;;;;10.55;6.45;;;20.00;99.90;;;;;;5092240;28;20584;-72
2022/06/02 05:53:24;;;;;;;11.05;7.95;;;20.20;99.90;;;;;;5092259;28;20204;-72
2022/06/02 05:56:04;;;;;;;11.48;7.43;;;20.10;99.90;;;;;;5092600;28;20205;-72
2022/06/02 05:58:55;;;;;;;13.07;7.38;;;20.20;99.90;;;;;;5091921;28;20233;-72
2022/06/02 06:01:34;;;;;;;11.15;7.72;;;20.20;99.90;;;;;;5077763;28;20214;-73
2022/06/02 06:04:39;;;;;;;11.98;7.28;;;20.40;99.90;;;;;;5092449;28;20209;-72
2022/06/02 06:07:14;;;;;;;10.15;7.18;;;20.20;99.90;;;;;;5022288;28;20199;-76
2022/06/02 06:09:50;;;;;;;10.82;6.38;;;20.40;99.90;;;;;;5086920;28;20568;-75
2022/06/02 06:12:41;;;;;;;7.80;6.93;;;20.60;99.90;;;;;;5065311;28;20225;-72
2022/06/02 06:15:17;;;;;;;8.25;7.45;;;20.70;99.90;;;;;;5092159;28;20267;-73
2022/06/02 06:17:55;;;;;;;11.27;7.82;;;20.70;99.90;;;;;;5092654;28;20209;-73
2022/06/02 06:20:49;;;;;;;12.30;9.18;;;20.70;99.90;;;;;;5067181;28;20696;-71
2022/06/02 06:23:58;;;;;;;10.38;6.72;;;20.60;99.90;;;;;;5078503;28;20684;-74
2022/06/02 06:26:33;;;;;;;12.20;8.45;;;20.40;99.90;;;;;;5071020;28;20235;-73
2022/06/02 06:29:17;;;;;;;12.55;7.13;;;20.50;99.90;;;;;;5091777;28;20209;-73
2022/06/02 06:32:01;;;;;;;9.95;7.93;;;20.50;99.90;;;;;;5075616;28;20235;-73
2022/06/02 06:34:41;;;;;;;11.23;7.00;;;20.50;99.90;;;;;;5065376;28;20245;-72
2022/06/02 06:37:27;;;;;;;12.25;7.30;;;20.50;99.90;;;;;;5073805;28;20680;-75
2022/06/02 06:40:08;;;;;;;9.80;6.57;;;20.40;99.90;;;;;;5074654;28;20260;-73
2022/06/02 06:42:51;;;;;;;8.82;7.70;;;20.30;99.90;;;;;;5072507;28;20198;-78
2022/06/02 06:45:22;;;;;;;11.50;7.88;;;20.30;99.90;;;;;;5078715;28;20202;-76
2022/06/02 06:47:58;;;;;;;12.68;7.22;;;20.30;99.90;;;;;;5077122;28;20206;-73
2022/06/02 06:50:33;;;;;;;12.52;8.90;;;20.40;99.90;;;;;;5080200;28;20219;-72
2022/06/02 06:53:17;;;;;;;9.88;7.60;;;20.40;99.90;;;;;;5076943;28;20256;-75
2022/06/02 06:55:56;;;;;;;16.42;8.85;;;20.60;99.90;;;;;;5072411;28;20664;-72
2022/06/02 06:58:35;;;;;;;12.50;7.53;;;20.80;99.90;;;;;;5078772;28;20282;-77
2022/06/02 07:01:09;;;;;;;10.40;7.75;;;20.80;99.90;;;;;;5084581;28;20363;-74
2022/06/02 07:03:49;;;;;;;8.02;7.28;;;20.80;99.90;;;;;;5086391;28;20200;-72
2022/06/02 07:06:33;;;;;;;11.93;8.75;;;20.70;99.90;;;;;;5089971;28;20209;-73
2022/06/02 07:09:05;;;;;;;10.70;7.70;;;20.60;99.90;;;;;;5065397;28;20288;-74
2022/06/02 07:14:29;;;;;;;9.60;7.25;;;20.40;99.90;;;;;;5080067;28;20217;-75
2022/06/02 07:16:56;;;;;;;8.20;6.95;;;20.50;99.90;;;;;;5072604;28;20210;-72
2022/06/02 07:19:33;;;;;;;9.05;7.53;;;20.40;99.90;;;;;;5071627;28;20303;-71
2022/06/02 07:22:04;;;;;;;9.93;6.68;;;20.30;99.90;;;;;;5074390;28;20201;-74
2022/06/02 07:24:39;;;;;;;9.38;6.53;;;20.50;99.90;;;;;;5072729;28;20291;-74
2022/06/02 07:27:15;;;;;;;8.52;6.40;;;20.50;99.90;;;;;;5075752;28;20206;-72
2022/06/02 07:29:56;;;;;;;8.85;6.30;;;20.50;99.90;;;;;;5070945;28;20264;-74
2022/06/02 07:32:47;;;;;;;10.80;7.85;;;20.60;99.90;;;;;;5068397;28;20202;-73
2022/06/02 07:35:47;;;;;;;7.68;6.68;;;20.40;99.90;;;;;;5067632;28;20309;-72
2022/06/02 07:38:24;;;;;;;8.43;6.97;;;20.50;99.90;;;;;;5065721;28;20205;-72
2022/06/02 07:41:07;;;;;;;8.30;6.57;;;20.60;99.90;;;;;;5070306;28;20202;-76
2022/06/02 07:44:06;;;;;;;8.43;6.50;;;20.70;99.90;;;;;;5073283;28;20592;-73
2022/06/02 07:46:52;;;;;;;12.35;8.63;;;20.70;99.90;;;;;;5068754;28;20570;-76
2022/06/02 07:49:41;;;;;;;10.77;8.20;;;21.00;99.90;;;;;;5078102;28;20666;-73
2022/06/02 07:52:18;;;;;;;8.60;7.60;;;20.90;99.90;;;;;;5080961;28;20210;-75
2022/06/02 07:54:57;;;;;;;7.65;6.85;;;21.10;99.90;;;;;;5073079;28;20210;-76
2022/06/02 07:57:33;;;;;;;7.45;6.15;;;21.30;99.90;;;;;;5071239;28;20685;-75
2022/06/02 08:00:14;;;;;;;9.90;7.50;;;21.20;99.90;;;;;;5078081;28;20229;-80
2022/06/02 08:03:09;;;;;;;8.80;7.15;;;21.30;99.90;;;;;;5070023;28;20308;-79
2022/06/02 08:05:43;;;;;;;11.23;7.20;;;21.30;99.90;;;;;;5058680;28;20263;-77
2022/06/02 08:08:20;;;;;;;9.10;6.28;;;21.20;99.90;;;;;;5071948;28;20262;-74
2022/06/02 08:10:59;;;;;;;9.85;7.13;;;21.40;99.90;;;;;;5071470;28;20620;-74
2022/06/02 08:13:34;;;;;;;10.25;7.05;;;21.40;99.90;;;;;;5073553;28;20262;-74
2022/06/02 08:16:08;;;;;;;8.02;6.80;;;21.20;99.90;;;;;;5072652;28;20205;-72
2022/06/02 08:18:53;;;;;;;15.30;7.60;;;21.20;99.90;;;;;;5075584;28;20214;-75
2022/06/02 08:21:26;;;;;;;9.50;8.32;;;21.10;99.90;;;;;;5074114;28;20643;-75
2022/06/02 08:24:24;;;;;;;8.95;6.68;;;21.30;99.90;;;;;;5075799;28;20203;-76
2022/06/02 08:27:03;;;;;;;8.80;6.10;;;21.30;99.90;;;;;;5078931;28;20202;-73
2022/06/02 08:29:43;;;;;;;8.18;6.07;;;21.20;99.90;;;;;;5074684;28;20258;-75
2022/06/02 08:32:32;;;;;;;14.00;6.43;;;21.30;99.90;;;;;;5075646;28;20206;-78
2022/06/02 08:35:08;;;;;;;12.27;6.30;;;21.30;99.90;;;;;;5075968;28;20624;-76
2022/06/02 08:37:44;;;;;;;9.20;6.95;;;21.70;99.90;;;;;;5075969;28;20205;-76
2022/06/02 08:40:34;;;;;;;8.93;7.10;;;21.60;99.90;;;;;;5082928;28;20232;-80
2022/06/02 08:43:34;;;;;;;11.90;8.90;;;21.80;99.90;;;;;;5074442;28;20202;-81
2022/06/02 08:46:41;;;;;;;11.52;6.97;;;21.80;99.90;;;;;;5062317;28;20202;-74
2022/06/02 08:49:50;;;;;;;9.05;6.47;;;22.10;99.90;;;;;;5074686;28;20209;-71
2022/06/02 08:52:58;;;;;;;9.30;6.30;;;22.40;99.90;;;;;;5073033;28;20216;-75
2022/06/02 08:55:58;;;;;;;6.28;5.68;;;22.50;99.90;;;;;;5069181;28;20266;-73
2022/06/02 08:59:09;;;;;;;8.35;6.63;;;22.40;99.90;;;;;;5088505;28;20220;-78
2022/06/02 09:02:04;;;;;;;10.02;7.10;;;22.10;99.90;;;;;;5071347;28;20243;-74
2022/06/02 09:05:08;;;;;;;12.52;7.53;;;22.10;99.90;;;;;;5073707;28;20206;-73
2022/06/02 09:08:05;;;;;;;12.02;7.55;;;22.00;99.90;;;;;;5061768;28;20622;-74
2022/06/02 09:10:52;;;;;;;9.38;7.30;;;22.50;99.90;;;;;;5063189;28;20731;-73
2022/06/02 09:14:07;;;;;;;10.43;7.18;;;23.20;99.90;;;;;;5077722;28;20237;-75
2022/06/02 09:16:43;;;;;;;9.27;6.75;;;23.50;99.90;;;;;;5056607;28;20747;-74
2022/06/02 09:19:35;;;;;;;11.55;7.60;;;23.40;99.90;;;;;;5063227;28;20229;-74
2022/06/02 09:22:33;;;;;;;9.43;7.70;;;23.20;99.90;;;;;;5073728;28;20606;-72
2022/06/02 09:25:17;;;;;;;7.13;6.32;;;23.20;99.90;;;;;;5081484;28;20289;-73
2022/06/02 09:28:20;;;;;;;8.25;7.05;;;24.30;99.90;;;;;;5071225;28;20245;-73
2022/06/02 09:31:02;;;;;;;7.93;7.07;;;23.80;99.90;;;;;;5077159;28;20271;-71
2022/06/02 09:34:09;;;;;;;11.57;8.68;;;23.70;99.90;;;;;;5083690;28;20205;-70
2022/06/02 09:36:53;;;;;;;9.07;7.68;;;23.30;99.90;;;;;;5079606;28;20202;-70
2022/06/02 09:39:47;;;;;;;8.20;6.20;;;23.40;99.90;;;;;;5072082;28;20225;-71
2022/06/02 09:42:39;;;;;;;9.73;6.22;;;24.50;99.90;;;;;;5068003;28;20545;-71
2022/06/02 09:45:27;;;;;;;9.25;7.38;;;24.30;99.90;;;;;;5071615;28;20234;-71
2022/06/02 09:48:15;;;;;;;8.50;6.03;;;24.30;99.90;;;;;;5072385;28;20214;-71
2022/06/02 09:51:08;;;;;;;10.77;5.90;;;24.70;99.90;;;;;;5067257;28;20213;-71
2022/06/02 09:54:08;;;;;;;8.70;6.90;;;25.20;99.90;;;;;;5072448;28;20202;-70
2022/06/02 09:56:55;;;;;;;9.70;7.18;;;26.80;99.90;;;;;;5072134;28;20267;-70
2022/06/02 09:59:34;;;;;;;10.13;6.35;;;26.30;99.90;;;;;;5072108;28;20234;-71
2022/06/02 10:02:16;;;;;;;7.15;6.47;;;25.50;99.90;;;;;;5064599;28;20669;-71
2022/06/02 10:05:04;;;;;;;8.45;6.68;;;24.90;99.90;;;;;;5092071;28;20205;-71
2022/06/02 10:07:45;;;;;;;8.43;6.75;;;25.00;99.90;;;;;;5092065;28;20210;-71
2022/06/02 10:10:24;;;;;;;8.50;6.60;;;26.60;99.90;;;;;;5092656;28;20288;-71
2022/06/02 10:13:35;;;;;;;7.55;5.82;;;25.40;99.90;;;;;;5085101;28;20234;-71
2022/06/02 10:16:40;;;;;;;7.28;6.57;;;26.20;99.90;;;;;;5081686;28;20244;-71
2022/06/02 10:19:39;;;;;;;6.50;5.90;;;26.80;99.90;;;;;;5061851;28;20252;-71
2022/06/02 10:22:14;;;;;;;7.90;6.15;;;25.70;99.90;;;;;;5077839;28;20197;-70
2022/06/02 10:25:35;;;;;;;7.10;5.82;;;25.30;99.90;;;;;;5091623;28;20664;-72
2022/06/02 10:28:24;;;;;;;9.05;6.70;;;25.30;99.90;;;;;;5072356;28;20561;-70
2022/06/02 10:31:30;;;;;;;6.63;5.82;;;24.50;99.90;;;;;;5091873;28;20241;-71
2022/06/02 10:34:35;;;;;;;6.80;5.78;;;27.00;99.90;;;;;;5091473;28;20202;-71
2022/06/02 10:37:29;;;;;;;6.47;5.88;;;26.30;99.90;;;;;;5091883;28;20292;-71
2022/06/02 10:40:13;;;;;;;8.80;5.43;;;25.80;99.90;;;;;;5091753;28;20225;-70
2022/06/02 10:43:19;;;;;;;9.15;6.28;;;25.80;99.90;;;;;;5091193;28;20229;-70
2022/06/02 10:46:21;;;;;;;8.60;6.60;;;26.30;99.90;;;;;;5077257;28;20205;-70
2022/06/02 10:49:16;;;;;;;9.10;5.85;;;26.10;99.90;;;;;;5087921;28;20266;-70
2022/06/02 10:52:28;;;;;;;8.45;5.50;;;25.80;99.90;;;;;;5069719;28;20217;-71
2022/06/02 10:55:43;;;;;;;6.63;6.03;;;26.10;99.90;;;;;;5066758;28;20216;-72
2022/06/02 10:58:46;;;;;;;7.13;5.38;;;25.70;99.90;;;;;;5064132;28;20205;-70
2022/06/02 11:02:04;;;;;;;5.93;5.43;;;26.10;99.90;;;;;;5077978;28;20237;-71
2022/06/02 11:05:06;;;;;;;8.15;6.20;;;25.80;99.90;;;;;;5013810;28;20217;-71
2022/06/02 11:08:20;;;;;;;10.88;7.30;;;25.60;99.90;;;;;;5014191;28;20775;-71
2022/06/02 11:11:10;;;;;;;9.07;6.10;;;25.90;99.90;;;;;;5091478;28;20737;-71
2022/06/02 11:14:00;;;;;;;7.65;6.45;;;26.90;99.90;;;;;;5090645;28;20255;-70
2022/06/02 11:17:11;;;;;;;13.43;7.10;;;26.20;99.90;;;;;;5090840;28;20209;-71
2022/06/02 11:20:16;;;;;;;10.75;6.95;;;25.70;99.90;;;;;;5047722;28;20360;-70
2022/06/02 11:23:14;;;;;;;9.30;6.78;;;25.70;99.90;;;;;;5055258;28;20250;-71
2022/06/02 11:26:10;;;;;;;8.63;6.50;;;25.80;99.90;;;;;;5090703;28;20258;-71
2022/06/02 11:29:16;;;;;;;8.82;7.07;;;26.30;99.90;;;;;;5090423;28;20210;-70
2022/06/02 11:32:14;;;;;;;10.68;6.63;;;26.30;99.90;;;;;;5069855;28;20213;-70
2022/06/02 11:35:07;;;;;;;8.02;7.32;;;26.70;99.90;;;;;;5060737;28;20549;-70
2022/06/02 11:37:57;;;;;;;6.90;5.90;;;25.80;99.90;;;;;;5090549;28;20209;-71
2022/06/02 11:40:57;;;;;;;6.53;5.95;;;25.50;99.90;;;;;;5090257;28;20237;-72
2022/06/02 11:43:33;;;;;;;6.95;6.32;;;25.40;99.90;;;;;;5068474;28;20229;-71
2022/06/02 11:46:33;;;;;;;6.97;6.28;;;25.40;99.90;;;;;;5090645;28;20205;-70
2022/06/02 11:49:20;;;;;;;6.40;5.80;;;25.10;99.90;;;;;;5090479;28;20656;-72
2022/06/02 11:52:24;;;;;;;6.78;6.05;;;25.30;99.90;;;;;;5090742;28;20282;-71
2022/06/02 11:55:20;;;;;;;8.15;6.38;;;25.60;99.90;;;;;;5064387;28;20669;-71
2022/06/02 11:58:15;;;;;;;6.60;6.00;;;25.50;99.90;;;;;;5090615;28;20209;-71
2022/06/02 12:01:12;;;;;;;6.47;5.88;;;25.80;99.90;;;;;;5065493;28;20230;-71
2022/06/02 12:04:22;;;;;;;7.35;5.65;;;25.50;99.90;;;;;;5070111;28;20611;-70
2022/06/02 12:07:22;;;;;;;6.18;5.53;;;25.60;99.90;;;;;;5045241;28;20203;-72
2022/06/02 12:10:25;;;;;;;5.97;5.47;;;25.60;99.90;;;;;;5074368;28;20210;-72
2022/06/02 12:13:09;;;;;;;9.35;5.90;;;26.50;99.90;;;;;;5064476;28;20206;-71
2022/06/02 12:16:14;;;;;;;6.15;5.60;;;26.10;99.90;;;;;;5069745;28;20392;-73
2022/06/02 12:18:56;;;;;;;9.10;5.95;;;26.10;99.90;;;;;;5069524;28;20201;-72
2022/06/02 12:21:45;;;;;;;5.88;5.25;;;25.80;99.90;;;;;;5069580;28;20279;-72
2022/06/02 12:24:49;;;;;;;7.70;6.10;;;26.20;99.90;;;;;;5070395;28;20202;-72
2022/06/02 12:27:53;;;;;;;6.13;5.63;;;26.30;99.90;;;;;;5033537;28;20210;-72
2022/06/02 12:30:31;;;;;;;8.90;6.03;;;26.20;99.90;;;;;;5071291;28;20217;-72
2022/06/02 12:33:15;;;;;;;7.80;6.43;;;26.00;99.90;;;;;;5071983;28;20256;-74
2022/06/02 12:36:00;;;;;;;11.32;6.50;;;25.90;99.90;;;;;;5075407;28;20681;-75
2022/06/02 12:38:53;;;;;;;8.40;6.07;;;25.90;99.90;;;;;;5081585;28;20259;-74
2022/06/02 12:41:52;;;;;;;7.03;6.30;;;26.10;99.90;;;;;;5072480;28;20343;-72
2022/06/02 12:45:02;;;;;;;7.47;6.80;;;26.40;99.90;;;;;;5077862;28;20310;-72
2022/06/02 12:48:01;;;;;;;7.10;6.50;;;26.10;99.90;;;;;;5066091;28;20209;-72
2022/06/02 12:50:43;;;;;;;11.45;6.68;;;26.50;99.90;;;;;;5072594;28;20753;-74
2022/06/02 12:54:07;;;;;;;8.65;6.75;;;26.20;99.90;;;;;;5080189;28;20210;-70
2022/06/02 12:57:25;;;;;;;8.57;6.03;;;26.60;99.90;;;;;;5044161;28;20569;-71
2022/06/02 13:00:23;;;;;;;7.25;6.18;;;26.80;99.90;;;;;;5043163;28;20203;-71
2022/06/02 13:03:31;;;;;;;7.18;6.07;;;26.50;99.90;;;;;;5073690;28;20202;-71
2022/06/02 13:06:23;;;;;;;8.23;6.80;;;26.20;99.90;;;;;;5074161;28;20210;-70
2022/06/02 13:09:40;;;;;;;7.13;6.43;;;26.50;99.90;;;;;;5051694;28;20213;-71
2022/06/02 13:12:58;;;;;;;7.93;7.05;;;26.30;99.90;;;;;;5041531;28;20793;-71
2022/06/02 13:16:00;;;;;;;7.25;6.07;;;26.60;99.90;;;;;;5043341;28;20592;-70
2022/06/02 13:19:16;;;;;;;6.22;5.72;;;26.50;99.90;;;;;;5073848;28;20684;-73
2022/06/02 13:22:25;;;;;;;7.82;7.00;;;26.50;99.90;;;;;;5077430;28;20229;-73
2022/06/02 13:25:30;;;;;;;9.05;7.28;;;26.10;99.90;;;;;;5080295;28;20216;-73
2022/06/02 13:28:38;;;;;;;8.93;6.40;;;26.10;99.90;;;;;;5067940;28;20210;-72
2022/06/02 13:31:41;;;;;;;7.93;7.10;;;26.00;99.90;;;;;;5072086;28;20206;-71
2022/06/02 13:34:45;;;;;;;7.28;6.78;;;26.00;99.90;;;;;;5077744;28;20696;-69
2022/06/02 13:40:22;;;;;;;8.77;5.95;;;26.20;99.90;;;;;;5096409;27;20584;-70
2022/06/02 13:43:22;;;;;;;8.35;6.63;;;26.20;99.90;;;;;;5075243;28;20232;-70
2022/06/02 13:46:29;;;;;;;8.32;6.30;;;26.40;99.90;;;;;;5076097;28;20206;-72
2022/06/02 13:49:27;;;;;;;9.50;5.43;;;26.40;99.90;;;;;;5076510;28;20728;-71
2022/06/02 13:52:43;;;;;;;7.13;6.43;;;26.60;99.90;;;;;;5071823;28;20263;-71
2022/06/02 13:58:54;;;;;;;6.82;6.25;;;26.50;99.90;;;;;;5067662;28;20359;-71
2022/06/02 14:01:44;;;;;;;8.88;5.85;;;27.20;99.90;;;;;;5084208;28;20669;-70
2022/06/02 14:04:42;;;;;;;10.70;6.53;;;27.20;99.90;;;;;;5067939;28;20210;-72
2022/06/02 14:07:33;;;;;;;6.20;5.60;;;27.20;99.90;;;;;;5068837;28;20210;-71
2022/06/02 14:10:22;;;;;;;8.88;6.00;;;27.50;99.90;;;;;;5071262;28;20209;-72
2022/06/02 14:13:12;;;;;;;9.70;6.97;;;27.10;99.90;;;;;;5068565;28;20248;-72
2022/06/02 14:15:49;;;;;;;8.30;5.43;;;27.50;99.90;;;;;;5070298;28;20211;-71
2022/06/02 14:18:53;;;;;;;6.72;5.90;;;27.30;99.90;;;;;;5075202;28;20233;-73
2022/06/02 14:21:35;;;;;;;7.18;6.35;;;27.40;99.90;;;;;;5072812;28;20661;-72
2022/06/02 14:24:10;;;;;;;6.03;5.43;;;27.50;99.90;;;;;;5072832;28;20285;-72
2022/06/02 14:26:51;;;;;;;9.10;6.50;;;27.30;99.90;;;;;;5076638;28;20274;-71
2022/06/02 14:29:35;;;;;;;8.07;5.60;;;26.80;99.90;;;;;;5077131;28;20225;-71
2022/06/02 14:32:12;;;;;;;6.43;5.22;;;26.80;99.90;;;;;;5073889;28;20206;-70
2022/06/02 14:34:53;;;;;;;8.48;5.90;;;26.80;99.90;;;;;;5076667;28;20206;-70
2022/06/02 14:37:24;;;;;;;10.38;6.47;;;26.80;99.90;;;;;;5081882;28;20214;-71
2022/06/02 14:39:58;;;;;;;5.85;5.25;;;27.10;99.90;;;;;;5077501;28;20275;-72
2022/06/02 14:45:40;;;;;;;8.27;6.07;;;27.50;99.90;;;;;;5074044;28;20212;-71